createdAt,value
2019-03-04T00:01:37.064Z,2.10
2019-03-04T00:04:05.249Z,2.20
2019-03-04T00:06:33.383Z,2.17
2019-03-04T00:09:01.565Z,2.53
2019-03-04T00:11:29.692Z,2.63
2019-03-04T00:13:57.828Z,2.30
2019-03-04T00:16:26.001Z,2.10
2019-03-04T00:18:54.267Z,2.83
2019-03-04T00:21:22.392Z,2.10
2019-03-04T00:23:50.564Z,2.03
2019-03-04T00:26:18.702Z,2.53
2019-03-04T00:28:46.925Z,2.30
2019-03-04T00:31:15.088Z,2.60
2019-03-04T00:33:43.228Z,2.00
2019-03-04T00:36:11.368Z,1.93
2019-03-04T00:38:39.528Z,2.20
2019-03-04T00:41:07.660Z,2.20
2019-03-04T00:43:35.798Z,2.60
2019-03-04T00:46:03.959Z,2.20
2019-03-04T00:48:32.090Z,2.00
2019-03-04T00:51:00.349Z,2.00
2019-03-04T00:53:28.512Z,1.93
2019-03-04T00:55:56.644Z,1.97
2019-03-04T00:58:24.780Z,2.00
2019-03-04T01:00:52.945Z,2.03
2019-03-04T01:03:21.372Z,1.83
2019-03-04T01:05:49.520Z,2.13
2019-03-04T01:08:17.956Z,2.37
2019-03-04T01:10:46.384Z,2.37
2019-03-04T01:13:14.519Z,1.90
2019-03-04T01:15:42.692Z,1.77
2019-03-04T01:18:10.829Z,2.13
2019-03-04T01:20:38.965Z,2.07
2019-03-04T01:23:07.121Z,2.00
2019-03-04T01:25:35.263Z,1.73
2019-03-04T01:28:03.393Z,1.73
2019-03-04T01:30:31.553Z,1.80
2019-03-04T01:32:59.684Z,2.00
2019-03-04T01:35:27.951Z,2.10
2019-03-04T01:37:56.123Z,1.40
2019-03-04T01:40:24.248Z,1.63
2019-03-04T01:42:52.384Z,2.00
2019-03-04T01:45:20.561Z,2.17
2019-03-04T01:47:48.693Z,1.80
2019-03-04T01:50:17.492Z,2.37
2019-03-04T01:52:45.733Z,2.37
2019-03-04T01:55:14.968Z,1.87
2019-03-04T01:57:43.346Z,2.50
2019-03-04T02:00:15.256Z,2.10
2019-03-04T02:02:43.512Z,2.10
2019-03-04T02:05:11.644Z,2.27
2019-03-04T02:07:39.808Z,2.23
2019-03-04T02:10:09.569Z,2.00
2019-03-04T02:12:37.704Z,1.60
2019-03-04T02:15:07.740Z,1.80
2019-03-04T02:17:35.871Z,1.80
2019-03-04T02:20:05.638Z,2.10
2019-03-04T02:22:33.796Z,1.63
2019-03-04T02:25:01.956Z,1.80
2019-03-04T02:27:30.088Z,2.20
2019-03-04T02:29:58.256Z,1.80
2019-03-04T02:32:26.385Z,2.13
2019-03-04T02:34:54.522Z,1.90
2019-03-04T02:37:23.272Z,2.10
2019-03-04T02:39:51.405Z,1.90
2019-03-04T02:42:19.545Z,1.70
2019-03-04T02:44:48.237Z,1.60
2019-03-04T02:47:16.378Z,1.77
2019-03-04T02:49:44.508Z,1.50
2019-03-04T02:52:12.917Z,1.60
2019-03-04T02:54:41.051Z,1.60
2019-03-04T02:57:09.191Z,1.60
2019-03-04T02:59:37.348Z,1.50
2019-03-04T03:02:07.349Z,1.50
2019-03-04T03:04:35.499Z,1.60
2019-03-04T03:07:03.652Z,1.20
2019-03-04T03:09:31.784Z,1.37
2019-03-04T03:11:59.917Z,1.20
2019-03-04T03:14:28.085Z,1.20
2019-03-04T03:16:56.390Z,1.00
2019-03-04T03:19:24.521Z,1.07
2019-03-04T03:21:52.672Z,1.20
2019-03-04T03:24:20.813Z,1.53
2019-03-04T03:26:48.943Z,1.07
2019-03-04T03:29:17.117Z,1.47
2019-03-04T03:31:45.317Z,1.20
2019-03-04T03:34:13.560Z,1.37
2019-03-04T03:36:42.198Z,1.20
2019-03-04T03:39:10.328Z,1.20
2019-03-04T03:41:38.474Z,1.20
2019-03-04T03:44:06.639Z,1.10
2019-03-04T03:46:34.764Z,0.93
2019-03-04T03:49:02.896Z,1.17
2019-03-04T03:51:31.057Z,1.37
2019-03-04T03:53:59.184Z,1.03
2019-03-04T03:56:27.320Z,1.17
2019-03-04T03:58:55.487Z,1.00
2019-03-04T04:01:23.622Z,0.90
2019-03-04T04:03:51.752Z,1.17
2019-03-04T04:06:19.917Z,1.37
2019-03-04T04:08:48.339Z,0.93
2019-03-04T04:11:16.469Z,1.03
2019-03-04T04:13:44.640Z,1.10
2019-03-04T04:16:12.778Z,0.83
2019-03-04T04:18:40.912Z,0.60
2019-03-04T04:21:09.081Z,0.93
2019-03-04T04:23:37.214Z,0.80
2019-03-04T04:26:06.986Z,1.10
2019-03-04T04:28:35.160Z,0.60
2019-03-04T04:31:03.297Z,0.83
2019-03-04T04:33:31.419Z,0.77
2019-03-04T04:35:59.581Z,1.20
2019-03-04T04:38:27.716Z,1.00
2019-03-04T04:40:55.864Z,1.43
2019-03-04T04:43:24.025Z,1.40
2019-03-04T04:45:52.159Z,1.23
2019-03-04T04:48:20.293Z,1.80
2019-03-04T04:50:48.465Z,1.40
2019-03-04T04:53:16.728Z,1.40
2019-03-04T04:55:44.876Z,1.37
2019-03-04T04:58:13.052Z,1.50
2019-03-04T05:00:41.177Z,1.13
2019-03-04T05:03:09.311Z,1.00
2019-03-04T05:05:39.106Z,1.50
2019-03-04T05:08:07.243Z,1.47
2019-03-04T05:10:35.369Z,1.40
2019-03-04T05:13:03.536Z,2.17
2019-03-04T05:15:31.721Z,1.80
2019-03-04T05:17:59.860Z,1.90
2019-03-04T05:20:28.034Z,1.77
2019-03-04T05:22:56.171Z,1.93
2019-03-04T05:25:24.306Z,1.90
2019-03-04T05:27:52.465Z,1.70
2019-03-04T05:30:21.071Z,1.50
2019-03-04T05:32:49.217Z,1.67
2019-03-04T05:35:17.392Z,1.60
2019-03-04T05:37:47.274Z,1.27
2019-03-04T05:40:16.456Z,1.20
2019-03-04T05:42:44.662Z,1.03
2019-03-04T05:45:13.817Z,1.33
2019-03-04T05:47:41.948Z,1.00
2019-03-04T05:50:11.749Z,0.83
2019-03-04T05:52:39.895Z,1.20
2019-03-04T05:55:09.488Z,1.27
2019-03-04T05:57:37.656Z,1.80
2019-03-04T06:00:07.426Z,2.13
2019-03-04T06:02:35.691Z,1.73
2019-03-04T06:05:04.820Z,1.57
2019-03-04T06:07:34.613Z,2.13
2019-03-04T06:10:02.941Z,2.10
2019-03-04T06:12:31.166Z,2.07
2019-03-04T06:14:59.257Z,3.20
2019-03-04T06:17:28.080Z,2.37
2019-03-04T06:19:56.260Z,3.13
2019-03-04T06:22:24.400Z,2.77
2019-03-04T06:24:52.536Z,3.73
2019-03-04T06:27:20.709Z,3.63
2019-03-04T06:29:48.844Z,2.60
2019-03-04T06:32:16.988Z,2.67
2019-03-04T06:34:45.164Z,2.90
2019-03-04T06:37:13.571Z,1.70
2019-03-04T06:39:41.704Z,2.23
2019-03-04T06:42:09.872Z,2.20
2019-03-04T06:44:38.008Z,2.90
2019-03-04T06:47:06.163Z,3.10
2019-03-04T06:49:34.333Z,3.77
2019-03-04T06:52:02.480Z,2.70
2019-03-04T06:54:32.246Z,2.37
2019-03-04T06:57:02.456Z,2.33
2019-03-04T06:59:32.220Z,2.37
2019-03-04T07:02:01.985Z,2.73
2019-03-04T07:04:31.802Z,3.13
2019-03-04T07:07:00.136Z,3.50
2019-03-04T07:09:28.272Z,3.40
2019-03-04T07:11:56.443Z,3.13
2019-03-04T07:14:24.584Z,2.53
2019-03-04T07:16:52.729Z,2.27
2019-03-04T07:19:20.909Z,1.10
2019-03-04T07:21:49.044Z,1.60
2019-03-04T07:24:17.180Z,1.50
2019-03-04T07:26:45.348Z,1.30
2019-03-04T07:29:15.087Z,1.57
2019-03-04T07:31:43.439Z,1.33
2019-03-04T07:34:11.592Z,1.10
2019-03-04T07:36:39.845Z,0.90
2019-03-04T07:39:08.050Z,0.83
2019-03-04T07:41:36.214Z,1.03
2019-03-04T07:44:04.474Z,0.87
2019-03-04T07:46:32.757Z,0.90
2019-03-04T07:49:00.933Z,1.20
2019-03-04T07:51:29.060Z,1.17
2019-03-04T07:53:57.293Z,1.10
2019-03-04T07:56:25.693Z,1.20
2019-03-04T07:58:53.830Z,1.20
2019-03-04T08:01:21.964Z,1.10
2019-03-04T08:03:50.126Z,1.10
2019-03-04T08:06:18.261Z,1.07
2019-03-04T08:09:03.216Z,0.80
2019-03-04T08:11:50.789Z,0.90
2019-03-04T08:14:18.957Z,1.10
2019-03-04T08:16:49.121Z,1.17
2019-03-04T08:19:17.253Z,1.10
2019-03-04T08:21:45.553Z,1.10
2019-03-04T08:24:13.950Z,0.80
2019-03-04T08:26:42.125Z,1.00
2019-03-04T08:29:10.294Z,0.83
2019-03-04T08:31:38.686Z,1.00
2019-03-04T08:34:09.214Z,1.30
2019-03-04T08:36:36.808Z,1.33
2019-03-04T08:39:06.116Z,1.53
2019-03-04T08:41:34.252Z,1.10
2019-03-04T08:44:02.512Z,1.87
2019-03-04T08:46:30.650Z,1.80
2019-03-04T08:48:58.790Z,1.23
2019-03-04T08:51:26.951Z,1.30
2019-03-04T08:53:55.356Z,1.07
2019-03-04T08:56:23.489Z,1.43
2019-03-04T08:58:51.653Z,1.20
2019-03-04T09:01:20.069Z,1.37
2019-03-04T09:03:48.215Z,1.62
2019-03-04T09:06:16.372Z,1.60
2019-03-04T09:08:44.512Z,1.47
2019-03-04T09:11:12.646Z,1.57
2019-03-04T09:13:40.804Z,1.53
2019-03-04T09:16:08.937Z,1.77
2019-03-04T09:18:37.078Z,1.50
2019-03-04T09:21:05.247Z,2.00
2019-03-04T09:23:33.639Z,1.90
2019-03-04T09:26:06.164Z,1.80
2019-03-04T09:28:34.429Z,1.50
2019-03-04T09:31:02.772Z,1.83
2019-03-04T09:33:30.896Z,1.33
2019-03-04T09:35:59.059Z,1.70
2019-03-04T09:38:27.192Z,1.87
2019-03-04T09:40:55.331Z,1.57
2019-03-04T09:43:23.500Z,1.33
2019-03-04T09:45:51.644Z,1.70
2019-03-04T09:48:19.785Z,1.70
2019-03-04T09:50:47.940Z,1.67
2019-03-04T09:53:16.072Z,1.57
2019-03-04T09:55:44.328Z,1.67
2019-03-04T09:58:12.480Z,1.70
2019-03-04T10:00:45.395Z,1.90
2019-03-04T10:03:15.160Z,2.10
2019-03-04T10:05:47.804Z,1.67
2019-03-04T10:08:18.941Z,2.10
2019-03-04T10:10:51.768Z,2.00
2019-03-04T10:13:24.303Z,2.30
2019-03-04T10:16:03.293Z,2.53
2019-03-04T10:18:36.034Z,2.47
2019-03-04T10:21:15.091Z,2.07
2019-03-04T10:24:01.421Z,1.97
2019-03-04T10:26:31.215Z,2.40
2019-03-04T10:29:03.666Z,2.20
2019-03-04T10:31:39.850Z,2.70
2019-03-04T10:34:09.619Z,2.40
2019-03-04T10:36:42.284Z,2.80
2019-03-04T10:39:12.116Z,2.00
2019-03-04T10:41:48.030Z,2.43
2019-03-04T10:44:29.840Z,2.10
2019-03-04T10:46:58.441Z,2.50
2019-03-04T10:49:27.148Z,2.70
2019-03-04T10:51:55.313Z,2.77
2019-03-04T10:54:23.448Z,2.20
2019-03-04T10:56:51.696Z,2.97
2019-03-04T10:59:19.864Z,2.60
2019-03-04T11:01:49.998Z,2.93
2019-03-04T11:04:17.900Z,2.00
2019-03-04T11:06:46.106Z,2.33
2019-03-04T11:09:14.247Z,2.20
2019-03-04T11:11:43.052Z,2.80
2019-03-04T11:14:11.221Z,2.53
2019-03-04T11:16:39.361Z,2.60
2019-03-04T11:19:07.500Z,2.80
2019-03-04T11:21:35.671Z,2.60
2019-03-04T11:24:04.877Z,2.00
2019-03-04T11:26:33.017Z,3.13
2019-03-04T11:29:01.172Z,2.60
2019-03-04T11:31:29.432Z,2.47
2019-03-04T11:33:57.586Z,2.93
2019-03-04T11:36:25.757Z,3.70
2019-03-04T11:38:55.523Z,2.77
2019-03-04T11:41:23.660Z,3.47
2019-03-04T11:43:51.818Z,2.60
2019-03-04T11:46:21.603Z,2.30
2019-03-04T11:48:49.868Z,2.97
2019-03-04T11:51:18.045Z,2.90
2019-03-04T11:53:46.172Z,2.93
2019-03-04T11:56:14.317Z,2.93
2019-03-04T11:58:42.479Z,2.67
2019-03-04T12:01:12.257Z,2.97
2019-03-04T12:03:40.697Z,2.20
2019-03-04T12:06:08.862Z,2.47
2019-03-04T12:08:36.997Z,2.53
2019-03-04T12:11:05.133Z,2.43
2019-03-04T12:13:33.300Z,2.43
2019-03-04T12:16:01.989Z,2.87
2019-03-04T12:18:30.117Z,2.00
2019-03-04T12:20:58.307Z,3.20
2019-03-04T12:23:26.444Z,1.73
2019-03-04T12:25:54.657Z,2.40
2019-03-04T12:28:22.902Z,2.77
2019-03-04T12:30:51.121Z,2.63
2019-03-04T12:33:22.089Z,2.80
2019-03-04T12:35:51.921Z,2.70
2019-03-04T12:38:20.057Z,2.10
2019-03-04T12:40:48.329Z,3.30
2019-03-04T12:43:16.494Z,2.20
2019-03-04T12:45:44.629Z,2.00
2019-03-04T12:48:12.761Z,2.10
2019-03-04T12:50:40.928Z,2.40
2019-03-04T12:53:09.102Z,3.30
2019-03-04T12:55:37.225Z,2.47
2019-03-04T12:58:05.457Z,2.33
2019-03-04T13:00:34.442Z,2.43
2019-03-04T13:03:02.585Z,2.13
2019-03-04T13:05:30.758Z,2.33
2019-03-04T13:07:59.020Z,1.93
2019-03-04T13:10:27.154Z,2.80
2019-03-04T13:12:55.317Z,2.17
2019-03-04T13:15:24.628Z,2.20
2019-03-04T13:17:52.766Z,2.00
2019-03-04T13:20:22.570Z,2.10
2019-03-04T13:22:50.707Z,2.43
2019-03-04T13:25:18.844Z,2.07
2019-03-04T13:27:47.117Z,2.80
2019-03-04T13:30:19.809Z,2.37
2019-03-04T13:32:47.962Z,2.57
2019-03-04T13:35:24.593Z,2.67
2019-03-04T13:37:50.232Z,2.70
2019-03-04T13:40:18.372Z,2.73
2019-03-04T13:42:46.532Z,1.90
2019-03-04T13:45:15.043Z,2.43
2019-03-04T13:47:43.257Z,2.47
2019-03-04T13:50:14.359Z,3.10
2019-03-04T13:52:43.341Z,2.37
2019-03-04T13:55:11.481Z,2.37
2019-03-04T13:57:39.652Z,2.27
2019-03-04T14:00:10.292Z,2.53
2019-03-04T14:02:38.425Z,2.30
2019-03-04T14:05:07.561Z,2.60
2019-03-04T14:07:35.740Z,2.10
2019-03-04T14:10:05.558Z,2.50
2019-03-04T14:12:34.568Z,2.20
2019-03-04T14:15:02.872Z,1.97
2019-03-04T14:17:31.009Z,2.30
2019-03-04T14:19:59.174Z,2.80
2019-03-04T14:22:27.537Z,2.37
2019-03-04T14:24:55.679Z,1.97
2019-03-04T14:27:23.846Z,2.10
2019-03-04T14:29:51.981Z,2.20
2019-03-04T14:32:20.127Z,2.90
2019-03-04T14:34:48.296Z,2.70
2019-03-04T14:37:16.435Z,2.50
2019-03-04T14:39:44.578Z,2.63
2019-03-04T14:42:12.739Z,2.53
2019-03-04T14:44:40.876Z,2.43
2019-03-04T14:47:09.015Z,2.40
2019-03-04T14:49:44.419Z,2.83
2019-03-04T14:52:06.969Z,2.20
2019-03-04T14:54:35.125Z,2.73
2019-03-04T14:57:03.264Z,3.17
2019-03-04T14:59:31.427Z,2.53
2019-03-04T15:01:59.755Z,2.37
2019-03-04T15:04:27.924Z,2.30
2019-03-04T15:06:56.064Z,2.90
2019-03-04T15:09:24.192Z,2.37
2019-03-04T15:11:53.653Z,2.30
2019-03-04T15:14:21.784Z,2.23
2019-03-04T15:16:50.033Z,2.47
2019-03-04T15:19:18.206Z,2.07
2019-03-04T15:21:46.348Z,2.57
2019-03-04T15:24:14.866Z,2.43
2019-03-04T15:26:44.278Z,2.40
2019-03-04T15:29:13.161Z,2.03
2019-03-04T15:31:41.305Z,2.20
2019-03-04T15:34:09.470Z,2.30
2019-03-04T15:36:37.612Z,2.37
2019-03-04T15:39:07.852Z,2.47
2019-03-04T15:41:40.236Z,2.10
2019-03-04T15:44:05.808Z,2.80
2019-03-04T15:46:33.968Z,1.90
2019-03-04T15:49:02.141Z,2.23
2019-03-04T15:51:30.272Z,2.43
2019-03-04T15:53:58.415Z,2.83
2019-03-04T15:56:27.238Z,2.50
2019-03-04T15:58:57.431Z,3.13
2019-03-04T16:01:26.692Z,1.90
2019-03-04T16:03:54.870Z,2.27
2019-03-04T16:06:23.004Z,2.63
2019-03-04T16:08:51.146Z,2.30
2019-03-04T16:11:19.385Z,2.50
2019-03-04T16:13:53.333Z,2.17
2019-03-04T16:16:17.308Z,2.40
2019-03-04T16:18:45.476Z,2.47
2019-03-04T16:21:13.720Z,2.20
2019-03-04T16:23:41.857Z,2.67
2019-03-04T16:26:10.101Z,2.93
2019-03-04T16:28:38.238Z,3.13
2019-03-04T16:31:06.373Z,2.63
2019-03-04T16:33:34.540Z,3.40
2019-03-04T16:36:02.676Z,2.93
2019-03-04T16:38:30.812Z,2.97
2019-03-04T16:40:58.991Z,3.60
2019-03-04T16:43:27.399Z,3.10
2019-03-04T16:45:55.540Z,2.80
2019-03-04T16:48:23.716Z,2.50
2019-03-04T16:50:51.880Z,3.30
2019-03-04T16:53:21.590Z,2.97
2019-03-04T16:55:49.767Z,3.53
2019-03-04T16:58:18.022Z,2.90
2019-03-04T17:00:46.329Z,2.97
2019-03-04T17:03:14.496Z,2.93
2019-03-04T17:05:42.717Z,2.40
2019-03-04T17:08:10.969Z,3.03
2019-03-04T17:10:39.138Z,3.50
2019-03-04T17:13:07.533Z,2.73
2019-03-04T17:15:35.668Z,2.93
2019-03-04T17:18:03.844Z,3.63
2019-03-04T17:20:32.321Z,2.53
2019-03-04T17:23:00.463Z,3.07
2019-03-04T17:25:28.621Z,2.80
2019-03-04T17:27:57.530Z,2.80
2019-03-04T17:30:27.121Z,3.90
2019-03-04T17:32:55.352Z,4.13
2019-03-04T17:35:24.077Z,2.93
2019-03-04T17:37:52.247Z,3.43
2019-03-04T17:40:22.136Z,3.03
2019-03-04T17:42:50.281Z,3.00
2019-03-04T17:45:24.294Z,3.27
2019-03-04T17:47:52.853Z,2.80
2019-03-04T17:50:28.617Z,2.90
2019-03-04T17:52:57.001Z,3.40
2019-03-04T17:55:25.346Z,2.90
2019-03-04T17:57:53.482Z,2.30
2019-03-04T18:00:21.649Z,2.40
2019-03-04T18:02:49.784Z,2.77
2019-03-04T18:05:18.156Z,2.60
2019-03-04T18:07:46.345Z,3.53
2019-03-04T18:10:15.460Z,2.37
2019-03-04T18:12:44.164Z,2.17
2019-03-04T18:15:16.574Z,2.90
2019-03-04T18:17:44.708Z,3.70
2019-03-04T18:20:14.782Z,3.17
2019-03-04T18:22:43.613Z,3.07
2019-03-04T18:25:13.382Z,2.20
2019-03-04T18:27:42.496Z,3.47
2019-03-04T18:30:12.311Z,2.30
2019-03-04T18:32:42.072Z,2.87
2019-03-04T18:35:23.976Z,3.40
2019-03-04T18:37:56.652Z,3.13
2019-03-04T18:40:29.169Z,2.53
2019-03-04T18:43:11.217Z,3.20
2019-03-04T18:45:44.284Z,3.00
2019-03-04T18:48:14.047Z,3.77
2019-03-04T18:50:42.185Z,2.83
2019-03-04T18:53:10.356Z,2.70
2019-03-04T18:55:38.508Z,2.17
2019-03-04T18:58:06.726Z,3.13
2019-03-04T19:00:34.884Z,2.30
2019-03-04T19:03:03.029Z,2.80
2019-03-04T19:05:31.175Z,2.10
2019-03-04T19:07:59.341Z,2.07
2019-03-04T19:10:27.703Z,1.97
2019-03-04T19:12:55.850Z,2.73
2019-03-04T19:15:26.676Z,1.87
2019-03-04T19:17:54.816Z,2.13
2019-03-04T19:20:22.951Z,2.30
2019-03-04T19:22:51.125Z,1.70
2019-03-04T19:25:19.260Z,1.70
2019-03-04T19:27:47.582Z,1.73
2019-03-04T19:30:15.745Z,1.83
2019-03-04T19:32:43.879Z,1.50
2019-03-04T19:35:12.580Z,1.43
2019-03-04T19:37:40.740Z,1.60
2019-03-04T19:40:09.940Z,2.07
2019-03-04T19:42:38.077Z,1.90
2019-03-04T19:45:10.677Z,1.70
2019-03-04T19:47:38.813Z,2.33
2019-03-04T19:50:08.337Z,1.87
2019-03-04T19:52:36.493Z,2.27
2019-03-04T19:55:06.256Z,2.60
2019-03-04T19:57:34.399Z,2.35
2019-03-04T20:00:03.627Z,2.67
2019-03-04T20:02:32.041Z,2.27
2019-03-04T20:05:00.369Z,2.33
2019-03-04T20:07:28.521Z,2.30
2019-03-04T20:09:56.789Z,2.73
2019-03-04T20:12:25.044Z,2.37
2019-03-04T20:14:53.333Z,2.23
2019-03-04T20:17:21.636Z,3.20
2019-03-04T20:19:49.865Z,2.17
2019-03-04T20:22:18.045Z,3.20
2019-03-04T20:24:46.185Z,2.70
2019-03-04T20:27:14.332Z,3.03
2019-03-04T20:29:42.506Z,3.03
2019-03-04T20:32:10.656Z,3.17
2019-03-04T20:34:38.787Z,2.50
2019-03-04T20:37:06.960Z,2.77
2019-03-04T20:39:35.169Z,3.23
2019-03-04T20:42:03.304Z,3.10
2019-03-04T20:44:31.478Z,2.67
2019-03-04T20:46:59.616Z,2.70
2019-03-04T20:49:27.748Z,2.60
2019-03-04T20:51:55.916Z,2.50
2019-03-04T20:54:24.057Z,3.40
2019-03-04T20:56:52.192Z,3.20
2019-03-04T20:59:20.369Z,2.67
2019-03-04T21:01:48.509Z,2.80
2019-03-04T21:04:16.649Z,3.15
2019-03-04T21:06:44.809Z,2.27
2019-03-04T21:09:14.217Z,2.87
2019-03-04T21:11:42.404Z,2.50
2019-03-04T21:14:10.535Z,3.37
2019-03-04T21:16:38.668Z,2.20
2019-03-04T21:19:06.804Z,2.67
2019-03-04T21:21:34.973Z,2.13
2019-03-04T21:24:03.181Z,2.73
2019-03-04T21:26:31.612Z,2.40
2019-03-04T21:29:16.356Z,3.70
2019-03-04T21:31:52.068Z,2.80
2019-03-04T21:34:30.909Z,3.10
2019-03-04T21:37:09.802Z,2.40
2019-03-04T21:39:42.261Z,2.57
2019-03-04T21:42:14.834Z,4.07
2019-03-04T21:44:50.660Z,2.73
2019-03-04T21:47:20.424Z,2.93
2019-03-04T21:49:49.954Z,2.83
2019-03-04T21:52:20.687Z,2.60
2019-03-04T21:54:49.528Z,2.47
2019-03-04T21:57:19.301Z,2.33
2019-03-04T21:59:47.460Z,3.03
2019-03-04T22:02:26.446Z,3.07
2019-03-04T22:04:55.185Z,2.23
2019-03-04T22:07:23.407Z,3.57
2019-03-04T22:09:51.559Z,2.83
2019-03-04T22:12:19.828Z,3.13
2019-03-04T22:14:47.965Z,3.20
2019-03-04T22:17:16.106Z,3.00
2019-03-04T22:19:44.439Z,3.00
2019-03-04T22:22:12.574Z,2.53
2019-03-04T22:24:40.723Z,3.17
2019-03-04T22:27:08.884Z,2.77
2019-03-04T22:29:37.325Z,2.47
2019-03-04T22:32:05.470Z,2.80
2019-03-04T22:34:33.633Z,3.37
2019-03-04T22:37:01.763Z,3.33
2019-03-04T22:39:29.901Z,2.83
2019-03-04T22:41:58.064Z,2.67
2019-03-04T22:44:26.227Z,2.30
2019-03-04T22:46:54.356Z,2.67
2019-03-04T22:49:22.794Z,2.80
2019-03-04T22:51:50.948Z,2.83
2019-03-04T22:54:19.063Z,3.40
2019-03-04T22:56:47.255Z,2.13
2019-03-04T22:59:15.651Z,2.87
2019-03-04T23:01:45.181Z,2.50
2019-03-04T23:04:17.624Z,2.73
2019-03-04T23:06:47.390Z,3.20
2019-03-04T23:09:17.865Z,3.03
2019-03-04T23:12:04.358Z,3.03
2019-03-04T23:14:32.511Z,2.97
2019-03-04T23:17:00.860Z,2.93
2019-03-04T23:19:29.029Z,3.37
2019-03-04T23:21:57.174Z,2.60
2019-03-04T23:24:25.315Z,2.90
2019-03-04T23:26:53.486Z,2.63
2019-03-04T23:29:21.625Z,3.53
2019-03-04T23:31:49.769Z,2.63
2019-03-04T23:34:17.935Z,2.63
2019-03-04T23:36:46.253Z,3.20
2019-03-04T23:39:14.625Z,2.60
2019-03-04T23:41:42.792Z,2.73
2019-03-04T23:44:11.080Z,2.40
2019-03-04T23:46:39.557Z,2.03
2019-03-04T23:49:08.088Z,2.70
2019-03-04T23:51:36.209Z,2.77
2019-03-04T23:54:04.345Z,2.10
2019-03-04T23:56:32.526Z,2.40
2019-03-04T23:59:00.679Z,3.20
